Terminal Aerodrome Forecast
Issued by NWS

Home | Current Version | Previous Version | Text Only | Print | Product List | Glossary On
Versions: 1 2 3 4 5 6 7 8 9 10 11 12 13 14 15 16 17
000
FTUS46 KSEW 281418 AAB
TAFHQM
TAF AMD
KHQM 281418Z 2814/2912 09004KT 4SM BR SCT020
      TEMPO 2814/2816 BKN020
     FM281600 12004KT 6SM BR SCT020
     FM281700 19004KT P6SM SCT250
     FM281800 25012KT P6SM SCT250
     FM290300 29005KT P6SM SCT250=

USA.gov is the U.S. government's official web portal to all federal, state and local government web resources and services.